Time;durP1;ratioP1;P1;durP2;ratioP2;P2;SDS_P1;SDS_P2;PMS_P1;PMS_P2;Temp;Humidity;BMP_temperature;BMP_pressure;BME280_temperature;BME280_humidity;BME280_pressure;Samples;Min_cycle;Max_cycle;Signal;HPM_P1;HPM_P2
2022/12/02 00:00:20;;;;;;;0.55;0.55;;;;;;;2.94;86.77;102317.50;5045831;28;20076;-71
2022/12/02 00:02:46;;;;;;;0.50;0.50;;;;;;;2.89;86.76;102327.50;5045714;28;20028;-70
2022/12/02 00:05:14;;;;;;;0.60;0.60;;;;;;;2.87;86.88;102321.41;5046094;28;20053;-71
2022/12/02 00:07:40;;;;;;;0.50;0.50;;;;;;;2.80;86.90;102316.72;5045724;28;20163;-71
2022/12/02 00:10:30;;;;;;;0.60;0.60;;;;;;;2.85;86.84;102325.56;5045680;28;20026;-71
2022/12/02 00:13:07;;;;;;;0.50;0.50;;;;;;;2.82;86.79;102322.84;5044306;28;20021;-71
2022/12/02 00:15:44;;;;;;;0.52;0.52;;;;;;;2.80;86.71;102324.44;5045733;28;20060;-70
2022/12/02 00:18:11;;;;;;;0.60;0.60;;;;;;;2.76;86.93;102323.41;5045309;28;20037;-72
2022/12/02 00:20:37;;;;;;;1.63;1.52;;;;;;;2.80;86.86;102332.13;5044150;28;20295;-70
2022/12/02 00:23:03;;;;;;;0.50;0.50;;;;;;;2.73;86.94;102320.66;5045323;28;20026;-70
2022/12/02 00:25:28;;;;;;;0.60;0.60;;;;;;;2.76;86.86;102325.06;5045683;28;20037;-70
2022/12/02 00:27:53;;;;;;;0.60;0.60;;;;;;;2.80;86.98;102332.13;5045485;28;20021;-70
2022/12/02 00:30:19;;;;;;;0.50;0.50;;;;;;;2.82;87.00;102333.09;5043855;28;20021;-70
2022/12/02 00:32:44;;;;;;;0.60;0.60;;;;;;;2.83;86.73;102334.84;5045217;28;20468;-70
2022/12/02 00:35:09;;;;;;;0.50;0.50;;;;;;;2.78;86.86;102328.63;5045369;28;20105;-70
2022/12/02 00:37:35;;;;;;;0.60;0.60;;;;;;;2.77;87.05;102319.13;5045396;28;20024;-70
2022/12/02 00:40:00;;;;;;;0.60;0.60;;;;;;;2.80;86.92;102327.00;5045169;28;20075;-71
2022/12/02 00:42:25;;;;;;;0.50;0.50;;;;;;;2.81;87.08;102331.34;5045269;28;20516;-71
2022/12/02 00:47:35;;;;;;;0.60;0.60;;;;;;;2.83;86.90;102337.41;5044810;28;20024;-71
2022/12/02 00:50:00;;;;;;;0.50;0.50;;;;;;;2.82;86.99;102338.22;5044979;28;20108;-72
2022/12/02 00:52:26;;;;;;;0.50;0.50;;;;;;;2.82;86.63;102335.66;5045189;28;20032;-71
2022/12/02 00:54:51;;;;;;;0.50;0.50;;;;;;;2.71;86.87;102325.72;5044696;28;20021;-70
2022/12/02 00:57:16;;;;;;;0.65;0.65;;;;;;;2.76;86.80;102336.22;5045111;28;20531;-71
2022/12/02 00:59:42;;;;;;;1.75;1.20;;;;;;;2.80;86.74;102342.38;5044976;28;20025;-71
2022/12/02 01:02:07;;;;;;;1.25;1.25;;;;;;;2.76;86.77;102337.91;5043046;28;20056;-70
2022/12/02 01:04:32;;;;;;;0.50;0.50;;;;;;;2.80;86.68;102340.72;5043499;28;20025;-70
2022/12/02 01:06:58;;;;;;;2.75;2.55;;;;;;;2.81;86.60;102345.03;5043385;28;20025;-70
2022/12/02 01:09:23;;;;;;;0.60;0.60;;;;;;;2.81;86.66;102341.59;5044712;28;20025;-70
2022/12/02 01:11:48;;;;;;;0.60;0.60;;;;;;;2.79;86.64;102344.09;5045087;28;20072;-71
2022/12/02 01:14:14;;;;;;;0.60;0.60;;;;;;;2.75;86.55;102338.72;5044811;28;20108;-71
2022/12/02 01:16:39;;;;;;;0.55;0.55;;;;;;;2.78;86.90;102344.88;5044392;28;20025;-70
2022/12/02 01:19:04;;;;;;;0.55;0.55;;;;;;;2.78;86.72;102338.88;5044755;28;20072;-70
2022/12/02 01:21:30;;;;;;;0.60;0.60;;;;;;;2.78;86.68;102346.56;5044699;28;20021;-70
2022/12/02 01:23:55;;;;;;;0.60;0.60;;;;;;;2.71;86.85;102338.53;5044692;28;20022;-70
2022/12/02 01:26:20;;;;;;;3.50;3.22;;;;;;;2.73;87.02;102336.06;5044576;28;20025;-70
2022/12/02 01:28:46;;;;;;;0.50;0.50;;;;;;;2.76;86.76;102337.91;5044566;28;20053;-70
2022/12/02 01:31:11;;;;;;;0.98;0.98;;;;;;;2.77;86.74;102343.13;5044714;28;20021;-71
2022/12/02 01:33:37;;;;;;;0.50;0.50;;;;;;;2.77;86.79;102344.78;5044600;28;20026;-71
2022/12/02 01:36:02;;;;;;;0.50;0.50;;;;;;;2.71;86.74;102340.22;5044648;28;20037;-70
2022/12/02 01:38:27;;;;;;;0.52;0.52;;;;;;;2.72;86.92;102348.00;5043199;28;20075;-70
2022/12/02 01:40:53;;;;;;;0.52;0.52;;;;;;;2.72;87.02;102347.09;5043169;28;20028;-70
2022/12/02 01:43:18;;;;;;;0.57;0.57;;;;;;;2.70;86.95;102346.16;5044611;28;20036;-70
2022/12/02 01:45:44;;;;;;;0.57;0.57;;;;;;;2.66;86.90;102337.38;5044608;28;20022;-69
2022/12/02 01:48:09;;;;;;;0.50;0.50;;;;;;;2.70;86.63;102338.47;5042899;28;20551;-70
2022/12/02 01:50:35;;;;;;;0.82;0.80;;;;;;;2.71;87.04;102341.09;5044420;28;20053;-70
2022/12/02 01:53:01;;;;;;;0.50;0.50;;;;;;;2.71;86.88;102335.97;5044589;28;20025;-70
2022/12/02 01:55:28;;;;;;;1.02;1.02;;;;;;;2.69;86.82;102335.00;5044619;28;20021;-70
2022/12/02 01:57:55;;;;;;;0.60;0.60;;;;;;;2.72;86.90;102345.41;5047600;28;20028;-71
2022/12/02 02:00:21;;;;;;;0.68;0.68;;;;;;;2.68;86.81;102322.97;5048022;28;20055;-71
2022/12/02 02:02:46;;;;;;;0.50;0.50;;;;;;;2.67;86.71;102328.88;5048086;28;20097;-71
2022/12/02 02:05:30;;;;;;;0.93;0.93;;;;;;;2.68;86.86;102329.78;5047799;28;20032;-70
2022/12/02 02:08:05;;;;;;;1.02;1.02;;;;;;;2.69;86.67;102327.31;5046656;28;20024;-70
2022/12/02 02:10:31;;;;;;;0.50;0.50;;;;;;;2.62;86.99;102319.19;5047788;28;20039;-71
2022/12/02 02:12:57;;;;;;;0.50;0.50;;;;;;;2.66;86.68;102329.69;5047879;28;20030;-70
2022/12/02 02:15:23;;;;;;;0.60;0.60;;;;;;;2.64;86.82;102325.25;5047920;28;20482;-70
2022/12/02 02:17:49;;;;;;;0.50;0.50;;;;;;;2.62;86.73;102325.19;5047653;28;20036;-70
2022/12/02 02:20:18;;;;;;;0.50;0.50;;;;;;;2.62;86.83;102322.63;5047394;28;20486;-70
2022/12/02 02:22:53;;;;;;;0.50;0.50;;;;;;;2.61;86.83;102328.56;5047760;28;20487;-70
2022/12/02 02:25:18;;;;;;;0.50;0.50;;;;;;;2.62;86.65;102325.19;5047674;28;20021;-70
2022/12/02 02:27:56;;;;;;;0.50;0.50;;;;;;;2.64;86.69;102326.16;5047871;28;20036;-70
2022/12/02 02:30:22;;;;;;;0.50;0.50;;;;;;;2.64;86.46;102327.81;5047569;28;20093;-69
2022/12/02 02:32:48;;;;;;;0.50;0.50;;;;;;;2.58;86.49;102331.84;5047545;28;20033;-70
2022/12/02 02:35:14;;;;;;;0.60;0.60;;;;;;;2.59;86.80;102331.03;5047673;28;20027;-71
2022/12/02 02:37:40;;;;;;;0.50;0.50;;;;;;;2.59;86.59;102331.03;5047519;28;20032;-70
2022/12/02 02:40:06;;;;;;;0.60;0.60;;;;;;;2.52;86.63;102326.38;5047477;28;20017;-70
2022/12/02 02:42:32;;;;;;;3.90;1.42;;;;;;;2.55;86.54;102321.41;5046064;28;20027;-72
2022/12/02 02:44:58;;;;;;;0.80;0.80;;;;;;;2.56;86.67;102329.97;5047335;28;20030;-70
2022/12/02 02:47:23;;;;;;;0.50;0.50;;;;;;;2.50;86.63;102324.50;5047054;28;20026;-70
2022/12/02 02:49:49;;;;;;;2.17;2.08;;;;;;;2.55;86.58;102335.91;5047328;28;20033;-69
2022/12/02 02:52:14;;;;;;;1.25;1.25;;;;;;;2.55;86.48;102335.91;5047473;28;20032;-70
2022/12/02 02:54:39;;;;;;;0.60;0.60;;;;;;;2.52;86.62;102339.19;5047285;28;20431;-71
2022/12/02 02:57:08;;;;;;;0.75;0.75;;;;;;;2.48;86.68;102327.88;5045909;28;20436;-71
2022/12/02 02:59:33;;;;;;;0.60;0.60;;;;;;;2.52;86.52;102346.88;5047018;28;20029;-70
2022/12/02 03:02:02;;;;;;;0.60;0.60;;;;;;;2.49;86.63;102336.47;5046833;28;20492;-70
2022/12/02 03:04:28;;;;;;;0.60;0.60;;;;;;;2.48;86.50;102338.13;5046937;28;20035;-70
2022/12/02 03:06:53;;;;;;;0.60;0.60;;;;;;;2.47;86.45;102330.34;5045357;28;20085;-70
2022/12/02 03:09:21;;;;;;;0.55;0.55;;;;;;;2.51;86.36;102347.66;5047035;28;20048;-70
2022/12/02 03:11:50;;;;;;;0.70;0.70;;;;;;;2.46;86.28;102342.28;5047109;28;20032;-71
2022/12/02 03:14:16;;;;;;;0.55;0.55;;;;;;;2.36;86.65;102329.75;5046984;28;20089;-71
2022/12/02 03:16:44;;;;;;;0.60;0.60;;;;;;;2.40;86.65;102334.25;5046798;28;20017;-70
2022/12/02 03:19:09;;;;;;;2.25;2.15;;;;;;;2.39;86.67;102335.06;5046640;28;20061;-71
2022/12/02 03:21:35;;;;;;;0.85;0.85;;;;;;;2.39;86.44;102334.16;5045545;28;20124;-71
2022/12/02 03:24:02;;;;;;;0.60;0.60;;;;;;;2.33;86.50;102327.88;5046834;28;20013;-73
2022/12/02 03:26:28;;;;;;;0.50;0.50;;;;;;;2.29;86.44;102319.94;5046597;28;20079;-71
2022/12/02 03:28:55;;;;;;;0.50;0.50;;;;;;;2.26;86.56;102317.19;5045401;28;20025;-71
2022/12/02 03:31:21;;;;;;;0.50;0.50;;;;;;;2.27;86.40;102326.66;5046374;28;20029;-70
2022/12/02 03:33:47;;;;;;;1.58;1.50;;;;;;;2.22;86.55;102322.13;5045128;28;20022;-70
2022/12/02 03:36:13;;;;;;;0.60;0.60;;;;;;;2.19;86.54;102326.22;5046428;28;20107;-71
2022/12/02 03:38:39;;;;;;;0.60;0.60;;;;;;;2.19;86.50;102319.41;5046261;28;20076;-71
2022/12/02 03:41:05;;;;;;;0.73;0.73;;;;;;;2.12;86.34;102327.56;5044863;28;20129;-70
2022/12/02 03:43:31;;;;;;;0.50;0.50;;;;;;;2.13;86.65;102326.75;5046224;28;20100;-70
2022/12/02 03:45:57;;;;;;;0.60;0.60;;;;;;;2.11;86.64;102328.31;5046081;28;20021;-70
2022/12/02 03:48:24;;;;;;;0.50;0.50;;;;;;;2.09;86.60;102327.38;5046018;28;20040;-70
2022/12/02 03:50:51;;;;;;;0.60;0.60;;;;;;;2.08;86.62;102333.28;5044706;28;20044;-70
2022/12/02 03:53:18;;;;;;;2.35;2.25;;;;;;;2.08;86.44;102323.91;5046004;28;20029;-71
2022/12/02 03:55:44;;;;;;;0.60;0.60;;;;;;;2.06;86.57;102327.19;5046102;28;20092;-70
2022/12/02 03:58:09;;;;;;;0.50;0.50;;;;;;;2.04;86.59;102327.13;5044569;28;20041;-70
2022/12/02 04:00:35;;;;;;;0.60;0.60;;;;;;;2.04;86.64;102332.22;5045725;28;20022;-70
2022/12/02 04:03:01;;;;;;;0.50;0.50;;;;;;;2.03;86.49;102333.00;5044450;28;20017;-70
2022/12/02 04:05:27;;;;;;;0.52;0.52;;;;;;;1.96;86.61;102318.09;5045853;28;20040;-70
2022/12/02 04:07:52;;;;;;;0.60;0.60;;;;;;;2.01;86.68;102328.59;5045800;28;20021;-70
2022/12/02 04:10:17;;;;;;;1.00;1.00;;;;;;;2.00;86.76;102331.97;5044295;28;20036;-70
2022/12/02 04:12:43;;;;;;;0.60;0.60;;;;;;;1.97;86.75;102328.44;5044260;28;20040;-71
2022/12/02 04:15:09;;;;;;;0.55;0.55;;;;;;;1.96;86.64;102334.34;5045727;28;20034;-71
2022/12/02 04:17:34;;;;;;;0.50;0.50;;;;;;;1.95;86.84;102335.13;5045556;28;20027;-71
2022/12/02 04:19:59;;;;;;;0.93;0.93;;;;;;;1.96;86.79;102338.59;5044750;28;20124;-70
2022/12/02 04:22:25;;;;;;;3.60;3.42;;;;;;;1.93;86.88;102334.16;5044267;28;20021;-71
2022/12/02 04:24:50;;;;;;;0.50;0.50;;;;;;;1.94;87.05;102340.16;5045383;28;20033;-70
2022/12/02 04:27:15;;;;;;;0.50;0.50;;;;;;;1.97;86.90;102343.78;5045337;28;20068;-70
2022/12/02 04:29:41;;;;;;;0.63;0.63;;;;;;;1.96;86.98;102346.28;5045199;28;20029;-70
2022/12/02 04:32:06;;;;;;;0.50;0.50;;;;;;;1.97;86.91;102337.78;5045073;28;20029;-70
2022/12/02 04:34:31;;;;;;;0.60;0.60;;;;;;;1.97;86.80;102336.13;5045324;28;20071;-70
2022/12/02 04:36:57;;;;;;;0.60;0.60;;;;;;;2.03;87.25;102340.69;5045267;28;20029;-70
2022/12/02 04:39:22;;;;;;;0.50;0.50;;;;;;;2.04;87.04;102337.34;5045248;28;20029;-70
2022/12/02 04:41:48;;;;;;;0.80;0.80;;;;;;;2.02;86.91;102336.38;5045149;28;20029;-70
2022/12/02 04:44:13;;;;;;;0.60;0.60;;;;;;;2.06;86.93;102334.88;5045312;28;20036;-70
2022/12/02 04:46:38;;;;;;;0.60;0.60;;;;;;;2.06;87.00;102340.00;5044698;28;20357;-71
2022/12/02 04:49:04;;;;;;;0.65;0.65;;;;;;;2.06;87.04;102327.19;5045259;28;20053;-70
2022/12/02 04:51:29;;;;;;;0.60;0.60;;;;;;;2.08;86.78;102336.72;5044945;28;20034;-70
2022/12/02 04:53:54;;;;;;;0.50;0.50;;;;;;;2.08;87.16;102333.28;5045160;28;20029;-71
2022/12/02 04:56:20;;;;;;;0.90;0.90;;;;;;;2.12;86.97;102332.69;5043692;28;20037;-71
2022/12/02 04:58:45;;;;;;;3.67;3.42;;;;;;;2.15;87.10;102337.09;5044908;28;20021;-71
2022/12/02 05:01:10;;;;;;;0.57;0.57;;;;;;;2.12;87.16;102332.69;5044721;28;20052;-72
2022/12/02 05:03:36;;;;;;;0.50;0.50;;;;;;;2.19;87.09;102337.34;5044917;28;20080;-71
2022/12/02 05:06:01;;;;;;;1.77;1.70;;;;;;;2.21;87.29;102342.56;5044946;28;20044;-71
2022/12/02 05:08:27;;;;;;;0.50;0.50;;;;;;;2.23;87.17;102336.75;5044751;28;20029;-71
2022/12/02 05:10:52;;;;;;;0.60;0.60;;;;;;;2.27;87.03;102334.34;5044864;28;20036;-72
2022/12/02 05:13:17;;;;;;;1.05;1.05;;;;;;;2.28;87.06;102338.66;5043607;28;20049;-72
2022/12/02 05:15:43;;;;;;;0.50;0.50;;;;;;;2.32;87.08;102348.28;5043596;28;20026;-71
2022/12/02 05:18:08;;;;;;;0.60;0.60;;;;;;;2.32;86.96;102340.59;5044780;28;20052;-72
2022/12/02 05:20:33;;;;;;;0.52;0.52;;;;;;;2.39;86.89;102346.97;5044516;28;20037;-71
2022/12/02 05:22:59;;;;;;;0.50;0.50;;;;;;;2.39;86.91;102341.84;5043511;28;20018;-70
2022/12/02 05:25:24;;;;;;;5.20;2.78;;;;;;;2.39;86.88;102332.47;5044630;28;20075;-71
2022/12/02 05:27:49;;;;;;;0.50;0.50;;;;;;;2.47;86.83;102343.16;5043354;28;20258;-71
2022/12/02 05:30:15;;;;;;;0.57;0.57;;;;;;;2.46;86.62;102333.72;5043962;28;20021;-72
2022/12/02 05:32:40;;;;;;;0.50;0.50;;;;;;;2.44;86.58;102333.63;5046967;28;20028;-72
2022/12/02 05:35:06;;;;;;;5.20;3.53;;;;;;;2.37;86.49;102328.94;5048614;28;20029;-73
2022/12/02 05:37:31;;;;;;;0.60;0.60;;;;;;;2.33;86.26;102327.00;5048566;28;20032;-73
2022/12/02 05:39:59;;;;;;;0.60;0.60;;;;;;;2.32;86.30;102341.50;5048215;28;20029;-72
2022/12/02 05:42:24;;;;;;;0.50;0.50;;;;;;;2.30;86.22;102326.84;5048588;28;20049;-72
2022/12/02 05:44:50;;;;;;;0.50;0.50;;;;;;;2.28;86.37;102341.25;5048512;28;20036;-72
2022/12/02 05:47:17;;;;;;;0.60;0.60;;;;;;;2.25;86.15;102336.84;5048266;28;20037;-72
2022/12/02 05:49:44;;;;;;;0.60;0.60;;;;;;;2.21;86.12;102337.44;5048331;28;20029;-71
2022/12/02 05:52:24;;;;;;;0.60;0.60;;;;;;;2.19;86.32;102339.03;5048239;28;20029;-72
2022/12/02 05:55:00;;;;;;;0.50;0.50;;;;;;;2.15;86.22;102337.97;5046842;28;20017;-71
2022/12/02 05:57:29;;;;;;;0.60;0.60;;;;;;;2.14;86.14;102336.19;5048209;28;20092;-71
2022/12/02 06:00:15;;;;;;;0.70;0.70;;;;;;;2.14;86.15;102341.31;5048090;28;20029;-71
2022/12/02 06:02:44;;;;;;;0.60;0.60;;;;;;;2.10;86.16;102341.94;5047988;28;20014;-69
2022/12/02 06:05:16;;;;;;;0.47;0.47;;;;;;;2.09;86.10;102338.50;5048272;28;20085;-74
2022/12/02 06:07:42;;;;;;;0.60;0.60;;;;;;;2.10;86.01;102344.50;5046672;28;20025;-69
2022/12/02 06:10:25;;;;;;;1.35;1.35;;;;;;;2.06;86.12;102342.56;5048001;28;20021;-72
2022/12/02 06:12:53;;;;;;;0.50;0.50;;;;;;;2.10;86.05;102359.88;5046647;28;20052;-71
2022/12/02 06:15:18;;;;;;;0.60;0.60;;;;;;;2.11;86.11;102356.50;5047846;28;20045;-72
2022/12/02 06:17:44;;;;;;;0.60;0.60;;;;;;;2.08;85.94;102359.78;5046230;28;20052;-70
2022/12/02 06:20:20;;;;;;;0.70;0.70;;;;;;;2.16;86.12;102367.03;5047299;28;20050;-71
2022/12/02 06:22:45;;;;;;;1.15;1.15;;;;;;;2.16;86.08;102362.78;5047768;28;20051;-69
2022/12/02 06:25:28;;;;;;;0.50;0.50;;;;;;;2.16;86.13;102364.47;5047626;28;20025;-78
2022/12/02 06:27:58;;;;;;;0.60;0.60;;;;;;;2.20;86.02;102367.31;5046294;28;20036;-77
2022/12/02 06:30:23;;;;;;;0.60;0.60;;;;;;;2.17;85.95;102372.25;5047603;28;20018;-75
2022/12/02 06:32:56;;;;;;;0.60;0.60;;;;;;;2.14;86.03;102371.19;5045980;28;20060;-77
2022/12/02 06:35:25;;;;;;;3.25;1.45;;;;;;;2.09;86.11;102364.09;5046551;28;20462;-76
2022/12/02 06:37:58;;;;;;;0.80;0.80;;;;;;;2.07;86.09;102367.38;5047554;28;20022;-77
2022/12/02 06:40:35;;;;;;;0.60;0.60;;;;;;;2.03;86.02;102375.69;5047527;28;20056;-77
2022/12/02 06:43:10;;;;;;;0.60;0.60;;;;;;;2.01;86.17;102377.28;5046833;28;20056;-77
2022/12/02 06:45:36;;;;;;;0.60;0.60;;;;;;;1.95;85.96;102375.25;5047617;28;20079;-78
2022/12/02 06:48:24;;;;;;;0.57;0.57;;;;;;;1.94;85.92;102382.03;5047247;28;20030;-80
2022/12/02 06:50:49;;;;;;;0.52;0.52;;;;;;;1.58;86.25;102330.41;5047676;28;20052;-76
2022/12/02 06:53:32;;;;;;;4.97;4.68;;;;;;;1.89;86.05;102380.88;5047362;28;20033;-78
2022/12/02 06:56:10;;;;;;;0.60;0.60;;;;;;;1.91;85.85;102374.19;5047339;28;20025;-78
2022/12/02 06:58:45;;;;;;;0.50;0.50;;;;;;;1.92;86.02;102390.41;5047388;28;20063;-69
2022/12/02 07:01:16;;;;;;;0.60;0.60;;;;;;;1.97;85.97;102391.56;5046984;28;20036;-70
2022/12/02 07:04:06;;;;;;;0.80;0.80;;;;;;;2.02;85.71;102389.28;5045680;28;20037;-69
2022/12/02 07:06:33;;;;;;;0.60;0.60;;;;;;;2.02;85.44;102379.94;5037495;28;20029;-70
2022/12/02 07:09:24;;;;;;;0.50;0.50;;;;;;;2.13;85.60;102390.81;5047149;28;20028;-71
2022/12/02 07:11:54;;;;;;;0.60;0.60;;;;;;;2.10;85.70;102386.41;5042934;28;20037;-70
2022/12/02 07:14:52;;;;;;;0.57;0.57;;;;;;;2.15;85.65;102399.47;5046254;28;20032;-71
2022/12/02 07:17:26;;;;;;;0.60;0.60;;;;;;;2.17;85.37;102394.44;5046837;28;20378;-70
2022/12/02 07:19:57;;;;;;;0.52;0.52;;;;;;;2.22;85.46;102391.34;5046507;28;20056;-70
2022/12/02 07:22:28;;;;;;;0.80;0.80;;;;;;;2.23;85.15;102387.09;5046726;28;20028;-71
2022/12/02 07:24:56;;;;;;;0.70;0.70;;;;;;;2.26;85.44;102402.66;5046583;28;20037;-71
2022/12/02 07:27:27;;;;;;;0.52;0.52;;;;;;;2.35;85.05;102400.63;5046640;28;20021;-71
2022/12/02 07:29:55;;;;;;;0.60;0.60;;;;;;;2.42;84.33;102417.25;5045226;28;20040;-72
2022/12/02 07:32:21;;;;;;;0.60;0.60;;;;;;;2.42;83.77;102411.25;5046091;28;20392;-71
2022/12/02 07:34:46;;;;;;;0.93;0.93;;;;;;;2.40;83.94;102402.56;5046857;28;20517;-71
2022/12/02 07:37:12;;;;;;;0.70;0.70;;;;;;;2.39;83.95;102404.25;5046199;28;20036;-71
2022/12/02 07:39:38;;;;;;;0.57;0.57;;;;;;;2.41;83.94;102412.91;5046580;28;20054;-72
2022/12/02 07:42:03;;;;;;;0.55;0.55;;;;;;;2.45;83.84;102408.84;5045038;28;20556;-71
2022/12/02 07:44:28;;;;;;;0.50;0.50;;;;;;;2.50;83.79;102401.41;5046373;28;20021;-71
2022/12/02 07:46:54;;;;;;;0.60;0.60;;;;;;;2.49;83.25;102403.13;5046027;28;20036;-72
2022/12/02 07:49:19;;;;;;;0.50;0.50;;;;;;;2.56;83.34;102409.47;5046424;28;20021;-71
2022/12/02 07:51:44;;;;;;;0.50;0.50;;;;;;;2.55;83.58;102413.72;5044689;28;20044;-72
2022/12/02 07:54:10;;;;;;;0.60;0.60;;;;;;;2.59;83.18;102412.19;5045070;28;20022;-71
2022/12/02 07:56:35;;;;;;;0.60;0.60;;;;;;;2.63;83.06;102405.56;5045900;28;20058;-71
2022/12/02 07:59:01;;;;;;;0.70;0.70;;;;;;;2.70;83.11;102426.53;5045876;28;20032;-71
2022/12/02 08:01:27;;;;;;;0.60;0.60;;;;;;;2.71;83.13;102419.72;5045718;28;20026;-70
2022/12/02 08:03:52;;;;;;;0.60;0.60;;;;;;;2.79;82.75;102421.06;5045936;28;20068;-71
2022/12/02 08:06:18;;;;;;;0.60;0.60;;;;;;;2.80;82.85;102419.34;5044582;28;20053;-71
2022/12/02 08:08:43;;;;;;;0.50;0.50;;;;;;;2.79;82.91;102412.47;5045658;28;20025;-72
2022/12/02 08:11:08;;;;;;;0.60;0.60;;;;;;;2.80;82.87;102414.22;5044267;28;20029;-71
2022/12/02 08:13:33;;;;;;;0.60;0.60;;;;;;;2.87;82.97;102424.03;5045748;28;20052;-72
2022/12/02 08:15:59;;;;;;;0.60;0.60;;;;;;;2.83;82.94;102419.50;5045603;28;20021;-72
2022/12/02 08:18:24;;;;;;;0.50;0.50;;;;;;;2.87;82.69;102418.91;5045484;28;20044;-71
2022/12/02 08:20:50;;;;;;;0.50;0.50;;;;;;;2.92;82.35;102434.56;5045245;28;20053;-72
2022/12/02 08:23:15;;;;;;;1.42;1.33;;;;;;;2.83;81.92;102409.25;5045628;28;20059;-72
2022/12/02 08:25:40;;;;;;;0.60;0.60;;;;;;;2.92;82.02;102432.88;5045505;28;20029;-73
2022/12/02 08:28:05;;;;;;;0.60;0.60;;;;;;;2.86;81.86;102427.38;5045440;28;20051;-73
2022/12/02 08:30:31;;;;;;;0.50;0.50;;;;;;;2.84;81.80;102431.56;5045303;28;20025;-73
2022/12/02 08:32:56;;;;;;;0.60;0.60;;;;;;;2.89;81.38;102448.06;5043770;28;20097;-72
2022/12/02 08:35:22;;;;;;;0.50;0.50;;;;;;;3.05;79.26;102443.84;5045431;28;20082;-72
2022/12/02 08:37:47;;;;;;;0.50;0.50;;;;;;;2.91;79.15;102441.38;5045691;28;20026;-72
2022/12/02 08:40:12;;;;;;;0.60;0.60;;;;;;;2.86;79.07;102445.34;5045014;28;20029;-72
2022/12/02 08:42:38;;;;;;;0.50;0.50;;;;;;;2.77;79.48;102443.16;5045322;28;20029;-72
2022/12/02 08:45:04;;;;;;;0.50;0.50;;;;;;;2.87;78.99;102442.00;5044830;28;20032;-72
2022/12/02 08:47:30;;;;;;;0.60;0.60;;;;;;;3.01;77.35;102447.00;5044872;28;20029;-73
2022/12/02 08:49:55;;;;;;;0.60;0.60;;;;;;;2.92;77.35;102443.16;5045216;28;20033;-71
2022/12/02 08:52:20;;;;;;;0.60;0.60;;;;;;;2.84;77.28;102439.25;5045176;28;20025;-74
2022/12/02 08:54:47;;;;;;;0.60;0.60;;;;;;;3.38;76.25;102449.06;5045034;28;20032;-75
2022/12/02 08:57:13;;;;;;;0.60;0.60;;;;;;;3.75;75.66;102437.31;5045201;28;20077;-73
2022/12/02 08:59:38;;;;;;;0.60;0.60;;;;;;;4.03;74.77;102450.69;5043817;28;20025;-74
2022/12/02 09:02:04;;;;;;;0.60;0.60;;;;;;;4.01;73.15;102452.31;5044590;28;20034;-72
2022/12/02 09:04:29;;;;;;;0.60;0.60;;;;;;;3.71;72.98;102443.97;5043602;28;20017;-75
2022/12/02 09:06:54;;;;;;;0.60;0.60;;;;;;;3.45;73.03;102451.13;5042656;28;20022;-73
2022/12/02 09:09:20;;;;;;;0.60;0.60;;;;;;;3.26;73.49;102454.38;5043109;28;20112;-72
2022/12/02 09:11:45;;;;;;;0.70;0.70;;;;;;;3.26;73.42;102458.66;5044784;28;20394;-73
2022/12/02 09:14:10;;;;;;;0.60;0.60;;;;;;;3.69;73.75;102455.81;5044603;28;20064;-73
2022/12/02 09:16:36;;;;;;;0.50;0.50;;;;;;;4.43;71.47;102455.31;5044174;28;20022;-72
2022/12/02 09:19:01;;;;;;;0.50;0.50;;;;;;;4.70;70.25;102454.91;5044559;28;20045;-73
2022/12/02 09:21:26;;;;;;;0.57;0.57;;;;;;;4.78;69.80;102451.81;5044496;28;20057;-73
2022/12/02 09:23:52;;;;;;;0.65;0.65;;;;;;;4.68;68.51;102453.94;5044694;28;20024;-72
2022/12/02 09:26:18;;;;;;;0.60;0.60;;;;;;;4.37;69.01;102451.53;5044788;28;20029;-73
2022/12/02 09:28:43;;;;;;;0.60;0.60;;;;;;;4.19;69.29;102448.13;5044514;28;20035;-72
2022/12/02 09:31:08;;;;;;;0.95;0.95;;;;;;;4.18;69.09;102435.19;5044581;28;20051;-72
2022/12/02 09:33:33;;;;;;;0.60;0.60;;;;;;;4.44;68.82;102457.06;5044208;28;20079;-73
2022/12/02 09:35:59;;;;;;;0.50;0.50;;;;;;;4.76;68.21;102450.88;5044499;28;20036;-73
2022/12/02 09:38:24;;;;;;;0.80;0.80;;;;;;;5.29;66.79;102453.34;5044407;28;20280;-74
2022/12/02 09:40:50;;;;;;;0.60;0.60;;;;;;;5.92;66.28;102433.81;5044573;28;20025;-74
2022/12/02 09:43:15;;;;;;;0.50;0.50;;;;;;;6.85;64.32;102448.84;5044557;28;20035;-74
2022/12/02 09:45:41;;;;;;;0.65;0.65;;;;;;;7.49;62.30;102438.38;5043363;28;20021;-74
2022/12/02 09:48:07;;;;;;;0.50;0.50;;;;;;;7.99;61.13;102442.72;5044115;28;20100;-74
2022/12/02 09:50:33;;;;;;;0.50;0.50;;;;;;;8.35;59.22;102441.34;5043884;28;20065;-73
2022/12/02 09:53:05;;;;;;;0.57;0.57;;;;;;;8.52;58.64;102442.81;5043914;28;20052;-74
2022/12/02 09:55:31;;;;;;;0.50;0.50;;;;;;;8.53;56.87;102444.56;5043157;28;20026;-74
2022/12/02 09:58:09;;;;;;;0.50;0.50;;;;;;;8.38;57.20;102434.59;5043802;28;20107;-74
2022/12/02 10:00:35;;;;;;;0.50;0.50;;;;;;;8.53;57.08;102447.13;5042062;28;20021;-74
2022/12/02 10:03:00;;;;;;;0.40;0.40;;;;;;;8.52;57.16;102437.63;5044502;28;20137;-74
2022/12/02 10:05:30;;;;;;;0.73;0.73;;;;;;;8.53;57.22;102429.03;5042453;28;20392;-75
2022/12/02 10:07:58;;;;;;;0.50;0.50;;;;;;;8.72;57.96;102436.56;5044067;28;20018;-73
2022/12/02 10:10:26;;;;;;;0.50;0.50;;;;;;;8.47;58.02;102425.34;5042986;28;20025;-73
2022/12/02 10:12:52;;;;;;;0.40;0.40;;;;;;;8.24;57.57;102431.50;5044163;28;20033;-73
2022/12/02 10:15:30;;;;;;;0.50;0.50;;;;;;;7.58;57.73;102425.78;5044249;28;20026;-74
2022/12/02 10:17:58;;;;;;;0.40;0.40;;;;;;;6.86;58.53;102433.41;5045894;28;20028;-73
2022/12/02 10:20:26;;;;;;;0.50;0.50;;;;;;;6.28;59.44;102432.78;5047589;28;20046;-73
2022/12/02 10:23:08;;;;;;;0.50;0.50;;;;;;;5.93;60.27;102415.84;5047858;28;20032;-74
2022/12/02 10:25:34;;;;;;;0.60;0.60;;;;;;;5.69;61.15;102423.38;5047798;28;20048;-73
2022/12/02 10:28:00;;;;;;;0.50;0.50;;;;;;;5.48;61.43;102423.31;5046349;28;20025;-73
2022/12/02 10:30:27;;;;;;;0.50;0.50;;;;;;;5.13;61.86;102432.03;5047474;28;20029;-73
2022/12/02 10:33:04;;;;;;;0.52;0.52;;;;;;;4.85;62.77;102423.00;5046162;28;20035;-73
2022/12/02 10:35:48;;;;;;;1.77;1.67;;;;;;;4.48;63.61;102424.66;5047634;28;20026;-73
2022/12/02 10:38:31;;;;;;;0.60;0.60;;;;;;;4.42;64.25;102432.97;5047527;28;20029;-73
2022/12/02 10:41:18;;;;;;;0.50;0.50;;;;;;;4.21;64.88;102430.19;5047627;28;20017;-74
2022/12/02 10:44:00;;;;;;;0.50;0.50;;;;;;;4.13;65.27;102442.66;5047493;28;20065;-73
2022/12/02 10:46:27;;;;;;;0.50;0.50;;;;;;;3.96;65.16;102434.94;5047547;28;20366;-73
2022/12/02 10:48:52;;;;;;;0.50;0.50;;;;;;;3.64;66.12;102434.16;5047175;28;20029;-73
2022/12/02 10:51:19;;;;;;;0.50;0.50;;;;;;;3.59;66.83;102453.59;5046933;28;20040;-73
2022/12/02 10:53:48;;;;;;;0.60;0.60;;;;;;;3.43;67.49;102439.94;5047204;28;20044;-73
2022/12/02 10:56:22;;;;;;;0.60;0.60;;;;;;;3.45;67.83;102451.13;5045689;28;20374;-74
2022/12/02 10:58:49;;;;;;;0.60;0.60;;;;;;;3.41;67.85;102430.34;5047424;28;20080;-74
2022/12/02 11:01:16;;;;;;;0.50;0.50;;;;;;;3.49;67.85;102438.47;5047156;28;20032;-74
2022/12/02 11:03:42;;;;;;;0.60;0.60;;;;;;;3.83;66.86;102433.44;5047242;28;20025;-74
2022/12/02 11:06:15;;;;;;;0.50;0.50;;;;;;;4.05;66.28;102434.56;5047067;28;20028;-67
2022/12/02 11:08:42;;;;;;;0.57;0.57;;;;;;;4.43;65.30;102429.59;5046905;28;20025;-72
2022/12/02 11:11:34;;;;;;;0.60;0.60;;;;;;;4.81;64.18;102423.66;5046852;28;20025;-73
2022/12/02 11:14:02;;;;;;;0.55;0.55;;;;;;;5.15;63.64;102417.53;5046878;28;20366;-73
2022/12/02 11:16:28;;;;;;;0.70;0.70;;;;;;;5.21;62.61;102432.38;5046957;28;20033;-73
2022/12/02 11:19:09;;;;;;;0.60;0.60;;;;;;;4.45;63.73;102430.56;5046537;28;20049;-73
2022/12/02 11:21:39;;;;;;;0.50;0.50;;;;;;;3.87;65.33;102431.00;5046603;28;20018;-73
2022/12/02 11:24:23;;;;;;;0.60;0.60;;;;;;;3.44;66.67;102441.69;5046574;28;20030;-73
2022/12/02 11:27:03;;;;;;;0.60;0.60;;;;;;;3.09;67.80;102430.34;5046333;28;20025;-73
2022/12/02 11:30:02;;;;;;;0.60;0.60;;;;;;;2.89;68.93;102431.81;5046269;28;20490;-73
2022/12/02 11:32:27;;;;;;;0.60;0.60;;;;;;;2.79;69.36;102425.28;5046191;28;20389;-73
2022/12/02 11:34:59;;;;;;;0.60;0.60;;;;;;;2.61;70.24;102423.44;5046403;28;20093;-73
2022/12/02 11:37:27;;;;;;;0.70;0.70;;;;;;;2.60;70.31;102417.41;5045256;28;20117;-73
2022/12/02 11:39:52;;;;;;;0.50;0.50;;;;;;;2.59;70.75;102428.47;5046323;28;20025;-73